createdAt,value
2022-08-19T00:03:19.888Z,3.33
2022-08-19T00:07:26.606Z,2.55
2022-08-19T00:11:36.967Z,3.25
2022-08-19T00:15:45.633Z,3.72
2022-08-19T00:19:52.369Z,3.47
2022-08-19T00:23:59.292Z,3.55
2022-08-19T00:28:06.117Z,3.45
2022-08-19T00:32:13.091Z,0.60
2022-08-19T00:36:21.913Z,2.25
2022-08-19T00:40:28.761Z,2.35
2022-08-19T00:44:36.483Z,3.80
2022-08-19T00:48:43.191Z,2.75
2022-08-19T00:52:52.159Z,3.00
2022-08-19T00:57:00.610Z,2.70
2022-08-19T01:01:08.654Z,3.08
2022-08-19T01:05:19.593Z,2.85
2022-08-19T01:09:26.372Z,3.08
2022-08-19T01:13:44.501Z,3.30
2022-08-19T01:18:00.206Z,3.05
2022-08-19T01:22:16.658Z,2.75
2022-08-19T01:26:25.076Z,4.00
2022-08-19T01:30:35.567Z,3.53
2022-08-19T01:34:42.856Z,3.15
2022-08-19T01:38:50.359Z,3.50
2022-08-19T01:42:57.606Z,2.53
2022-08-19T01:47:04.899Z,4.57
2022-08-19T01:51:13.578Z,3.03
2022-08-19T01:55:23.371Z,2.63
2022-08-19T01:59:32.700Z,2.45
2022-08-19T02:03:39.684Z,3.08
2022-08-19T02:07:46.399Z,3.13
2022-08-19T02:11:53.136Z,2.85
2022-08-19T02:15:59.972Z,2.95
2022-08-19T02:20:08.498Z,3.90
2022-08-19T02:24:15.201Z,3.38
2022-08-19T02:28:21.939Z,3.60
2022-08-19T02:32:28.665Z,2.92
2022-08-19T02:36:35.583Z,2.95
2022-08-19T02:40:50.550Z,2.45
2022-08-19T02:44:57.298Z,3.78
2022-08-19T02:49:07.858Z,3.75
2022-08-19T02:53:14.656Z,2.85
2022-08-19T02:57:21.377Z,1.98
2022-08-19T03:01:32.277Z,0.80
2022-08-19T03:05:48.274Z,0.98
2022-08-19T03:10:04.842Z,1.23
2022-08-19T03:14:12.037Z,1.65
2022-08-19T03:18:18.848Z,1.67
2022-08-19T03:22:26.407Z,2.35
2022-08-19T03:26:33.329Z,1.75
2022-08-19T03:30:41.983Z,1.48
2022-08-19T03:34:51.873Z,1.95
2022-08-19T03:39:01.834Z,1.20
2022-08-19T03:43:08.511Z,1.63
2022-08-19T03:47:17.575Z,1.75
2022-08-19T03:51:30.896Z,1.60
2022-08-19T03:55:42.318Z,1.20
2022-08-19T03:59:49.028Z,1.63
2022-08-19T04:04:00.476Z,0.88
2022-08-19T04:08:09.677Z,1.25
2022-08-19T04:12:21.326Z,1.70
2022-08-19T04:16:35.143Z,1.00
2022-08-19T04:20:44.979Z,1.40
2022-08-19T04:24:51.688Z,1.00
2022-08-19T04:28:59.297Z,1.30
2022-08-19T04:33:06.946Z,1.55
2022-08-19T04:37:13.885Z,1.60
2022-08-19T04:41:39.195Z,1.23
2022-08-19T04:45:46.857Z,1.25
2022-08-19T04:49:53.666Z,1.70
2022-08-19T04:54:02.685Z,1.92
2022-08-19T04:58:09.431Z,2.00
2022-08-19T05:02:16.149Z,2.78
2022-08-19T05:06:24.297Z,2.83
2022-08-19T05:10:31.749Z,3.40
2022-08-19T05:14:38.469Z,4.00
2022-08-19T05:19:03.841Z,3.65
2022-08-19T05:23:13.053Z,2.72
2022-08-19T05:27:29.053Z,4.72
2022-08-19T05:31:37.572Z,3.22
2022-08-19T05:35:50.265Z,3.83
2022-08-19T05:39:57.112Z,4.35
2022-08-19T05:44:07.550Z,5.90
2022-08-19T05:48:14.984Z,5.45
2022-08-19T05:52:25.374Z,5.80
2022-08-19T05:56:33.302Z,3.85
2022-08-19T06:00:41.090Z,4.45
2022-08-19T06:04:47.820Z,4.72
2022-08-19T06:08:54.585Z,8.52
2022-08-19T06:13:01.293Z,7.38
2022-08-19T06:17:08.170Z,9.02
2022-08-19T06:21:15.248Z,10.60
2022-08-19T06:25:22.034Z,10.65
2022-08-19T06:29:30.818Z,10.88
2022-08-19T06:33:38.288Z,10.20
2022-08-19T06:37:45.721Z,11.18
2022-08-19T06:41:58.202Z,13.02
2022-08-19T06:46:12.644Z,13.05
2022-08-19T06:50:21.927Z,15.73
2022-08-19T06:54:32.224Z,15.68
2022-08-19T06:58:44.580Z,15.52
2022-08-19T07:02:56.146Z,17.60
2022-08-19T07:07:19.648Z,18.10
2022-08-19T07:11:27.779Z,17.50
2022-08-19T07:15:38.594Z,18.83
2022-08-19T07:19:46.776Z,18.52
2022-08-19T07:23:54.318Z,19.63
2022-08-19T07:28:01.471Z,20.77
2022-08-19T07:32:13.458Z,19.05
2022-08-19T07:36:33.153Z,19.08
2022-08-19T07:40:41.088Z,19.33
2022-08-19T07:44:50.344Z,19.50
2022-08-19T07:48:58.239Z,19.05
2022-08-19T07:53:04.946Z,18.30
2022-08-19T07:57:12.316Z,17.35
2022-08-19T08:01:24.182Z,17.50
2022-08-19T08:05:49.549Z,18.25
2022-08-19T08:18:42.304Z,18.20
2022-08-19T08:23:07.944Z,15.90
2022-08-19T08:27:14.749Z,17.55
2022-08-19T08:31:25.039Z,15.68
2022-08-19T08:35:32.837Z,16.38
2022-08-19T08:39:39.708Z,15.07
2022-08-19T08:43:50.000Z,15.65
2022-08-19T08:48:01.699Z,14.80
2022-08-19T08:52:16.441Z,17.42
2022-08-19T08:56:24.029Z,13.68
2022-08-19T09:00:34.564Z,16.30
2022-08-19T09:04:41.300Z,18.20
2022-08-19T09:09:32.101Z,18.17
2022-08-19T09:13:45.661Z,12.07
2022-08-19T09:17:52.402Z,12.75
2022-08-19T09:22:01.597Z,12.07
2022-08-19T09:26:10.519Z,11.52
2022-08-19T09:30:23.644Z,11.38
2022-08-19T09:34:30.403Z,10.15
2022-08-19T09:38:45.688Z,10.43
2022-08-19T09:42:53.129Z,10.00
2022-08-19T09:47:01.240Z,12.50
2022-08-19T09:51:16.384Z,12.23
2022-08-19T09:55:23.173Z,12.57
2022-08-19T09:59:30.838Z,11.30
2022-08-19T10:03:40.064Z,12.85
2022-08-19T10:07:46.860Z,13.05
2022-08-19T10:11:55.023Z,14.05
2022-08-19T10:16:08.570Z,12.95
2022-08-19T10:20:17.365Z,8.07
2022-08-19T10:24:25.480Z,7.75
2022-08-19T10:28:32.651Z,8.73
2022-08-19T10:32:39.357Z,11.00
2022-08-19T10:36:56.021Z,13.02
2022-08-19T10:41:15.536Z,9.50
2022-08-19T10:45:24.296Z,10.35
2022-08-19T10:49:31.312Z,10.95
2022-08-19T10:53:38.032Z,13.50
2022-08-19T10:58:01.649Z,13.00
2022-08-19T11:02:11.489Z,13.45
2022-08-19T11:06:18.269Z,13.43
2022-08-19T11:10:25.048Z,11.63
2022-08-19T11:14:34.232Z,11.52
2022-08-19T11:18:45.734Z,10.70
2022-08-19T11:22:54.556Z,9.82
2022-08-19T11:27:10.224Z,9.23
2022-08-19T11:31:23.016Z,10.60
2022-08-19T11:35:31.602Z,9.82
2022-08-19T11:39:38.937Z,9.27
2022-08-19T11:43:46.614Z,8.02
2022-08-19T11:47:54.199Z,6.60
2022-08-19T11:52:01.107Z,7.55
2022-08-19T11:56:09.599Z,7.55
2022-08-19T12:00:16.880Z,6.00
2022-08-19T12:04:23.875Z,6.93
2022-08-19T12:08:30.641Z,7.90
2022-08-19T12:12:38.891Z,5.93
2022-08-19T12:16:51.050Z,6.13
2022-08-19T12:21:01.460Z,6.22
2022-08-19T12:25:10.535Z,6.20
2022-08-19T12:29:21.539Z,7.20
2022-08-19T12:33:30.175Z,5.15
2022-08-19T12:37:37.040Z,5.45
2022-08-19T12:41:51.399Z,4.80
2022-08-19T12:46:01.221Z,5.10
2022-08-19T12:50:11.528Z,4.65
2022-08-19T12:54:18.736Z,6.18
2022-08-19T12:58:27.393Z,4.32
2022-08-19T13:02:38.302Z,5.22
2022-08-19T13:06:45.991Z,3.35
2022-08-19T13:10:52.745Z,3.80
2022-08-19T13:14:59.508Z,4.03
2022-08-19T13:19:06.483Z,5.57
2022-08-19T13:23:13.276Z,5.07
2022-08-19T13:27:20.213Z,4.32
2022-08-19T13:31:48.649Z,3.65
2022-08-19T13:36:00.436Z,3.13
2022-08-19T13:40:13.707Z,3.80
2022-08-19T13:44:20.876Z,3.03
2022-08-19T13:48:28.027Z,5.43
2022-08-19T13:52:34.909Z,4.47
2022-08-19T13:56:46.268Z,3.60
2022-08-19T14:00:53.110Z,4.30
2022-08-19T14:04:59.955Z,5.10
2022-08-19T14:09:06.806Z,4.05
2022-08-19T14:13:20.902Z,5.00
2022-08-19T14:17:27.861Z,5.25
2022-08-19T14:21:39.731Z,6.50
2022-08-19T14:25:48.344Z,7.82
2022-08-19T14:29:56.109Z,8.52
2022-08-19T14:34:02.833Z,12.05
2022-08-19T14:38:17.220Z,14.57
2022-08-19T14:42:23.948Z,18.05
2022-08-19T14:46:30.731Z,18.40
2022-08-19T14:50:38.419Z,17.33
2022-08-19T14:54:45.292Z,16.83
2022-08-19T14:58:55.407Z,17.77
2022-08-19T15:03:02.219Z,16.50
2022-08-19T15:07:09.050Z,18.75
2022-08-19T15:11:18.714Z,19.92
2022-08-19T15:15:26.140Z,19.88
2022-08-19T15:19:34.263Z,18.48
2022-08-19T15:23:42.257Z,17.90
2022-08-19T15:27:54.092Z,18.20
2022-08-19T15:32:01.436Z,17.92
2022-08-19T15:36:08.513Z,15.95
2022-08-19T15:40:17.377Z,15.52
2022-08-19T15:44:24.328Z,16.73
2022-08-19T15:48:31.027Z,17.77
2022-08-19T15:52:49.821Z,16.42
2022-08-19T15:57:15.863Z,15.20
2022-08-19T16:01:41.949Z,15.55
2022-08-19T16:06:08.865Z,16.17
2022-08-19T16:10:26.909Z,14.48
2022-08-19T16:14:35.614Z,13.85
2022-08-19T16:18:42.517Z,13.70
2022-08-19T16:22:49.556Z,12.20
2022-08-19T16:26:56.501Z,14.13
2022-08-19T16:31:03.337Z,13.13
2022-08-19T16:35:10.697Z,12.60
2022-08-19T16:39:17.987Z,11.88
2022-08-19T16:43:25.613Z,9.07
2022-08-19T16:47:32.339Z,9.00
2022-08-19T16:51:39.972Z,9.02
2022-08-19T16:55:50.882Z,8.80
2022-08-19T16:59:57.720Z,7.00
2022-08-19T17:04:04.458Z,6.75
2022-08-19T17:08:11.596Z,7.63
2022-08-19T17:12:18.300Z,7.13
2022-08-19T17:16:28.444Z,7.38
2022-08-19T17:20:35.757Z,6.38
2022-08-19T17:24:42.473Z,6.43
2022-08-19T17:28:51.696Z,6.22
2022-08-19T17:32:58.536Z,6.55
2022-08-19T17:37:05.452Z,6.78
2022-08-19T17:41:12.211Z,6.35
2022-08-19T17:45:20.852Z,7.07
2022-08-19T17:49:27.620Z,6.07
2022-08-19T17:53:34.328Z,7.03
2022-08-19T17:57:44.756Z,5.78
2022-08-19T18:01:54.624Z,5.32
2022-08-19T18:06:01.480Z,7.00
2022-08-19T18:10:09.796Z,7.05
2022-08-19T18:14:16.524Z,6.22
2022-08-19T18:18:23.308Z,6.13
2022-08-19T18:22:36.890Z,6.70
2022-08-19T18:26:43.897Z,6.18
2022-08-19T18:30:50.616Z,6.70
2022-08-19T18:34:57.375Z,6.15
2022-08-19T18:39:24.028Z,6.53
2022-08-19T18:43:49.765Z,6.50
2022-08-19T18:48:26.377Z,5.68
2022-08-19T18:52:37.863Z,5.97
2022-08-19T18:56:44.877Z,6.82
2022-08-19T19:00:56.884Z,5.95
2022-08-19T19:05:07.364Z,6.80
2022-08-19T19:09:18.776Z,4.30
2022-08-19T19:13:29.445Z,4.72
2022-08-19T19:17:36.363Z,5.63
2022-08-19T19:21:49.372Z,4.82
2022-08-19T19:25:56.119Z,5.60
2022-08-19T19:30:02.985Z,5.90
2022-08-19T19:34:15.481Z,5.10
2022-08-19T19:38:36.305Z,5.65
2022-08-19T19:42:43.023Z,6.10
2022-08-19T19:46:49.862Z,7.05
2022-08-19T19:50:57.483Z,5.78
2022-08-19T19:55:05.597Z,5.60
2022-08-19T19:59:12.737Z,5.97
2022-08-19T20:03:20.802Z,5.13
2022-08-19T20:07:47.521Z,4.85
2022-08-19T20:11:58.151Z,4.60
2022-08-19T20:16:04.977Z,4.70
2022-08-19T20:20:14.884Z,5.28
2022-08-19T20:24:25.917Z,5.00
2022-08-19T20:28:32.639Z,5.38
2022-08-19T20:32:39.516Z,4.93
2022-08-19T20:36:46.701Z,5.15
2022-08-19T20:40:53.427Z,5.13
2022-08-19T20:45:02.509Z,6.40
2022-08-19T20:49:09.529Z,6.07
2022-08-19T20:53:20.088Z,6.55
2022-08-19T20:57:26.899Z,6.60
2022-08-19T21:01:33.612Z,7.38
2022-08-19T21:05:40.320Z,7.50
2022-08-19T21:09:47.104Z,6.70
2022-08-19T21:13:53.845Z,6.45
2022-08-19T21:18:00.555Z,5.57
2022-08-19T21:22:07.280Z,5.82
2022-08-19T21:26:14.069Z,5.55
2022-08-19T21:30:20.850Z,4.72
2022-08-19T21:34:27.623Z,4.70
2022-08-19T21:38:34.457Z,4.00
2022-08-19T21:42:41.699Z,4.15
2022-08-19T21:46:50.383Z,3.90
2022-08-19T21:50:57.483Z,3.88
2022-08-19T21:55:05.431Z,3.58
2022-08-19T21:59:12.165Z,3.97
2022-08-19T22:03:19.329Z,4.53
2022-08-19T22:07:26.105Z,4.50
2022-08-19T22:11:32.878Z,4.78
2022-08-19T22:15:39.647Z,4.65
2022-08-19T22:19:46.777Z,4.47
2022-08-19T22:23:53.562Z,4.47
2022-08-19T22:28:02.132Z,4.80
2022-08-19T22:32:26.756Z,4.75
2022-08-19T22:36:35.444Z,4.18
2022-08-19T22:40:47.325Z,4.55
2022-08-19T22:44:58.711Z,4.45
2022-08-19T22:49:05.420Z,4.20
2022-08-19T22:53:12.312Z,3.95
2022-08-19T22:57:20.713Z,5.32
2022-08-19T23:01:30.313Z,5.35
2022-08-19T23:05:37.560Z,4.63
2022-08-19T23:09:47.461Z,4.40
2022-08-19T23:13:54.171Z,4.80
2022-08-19T23:18:03.761Z,4.35
2022-08-19T23:22:10.579Z,4.60
2022-08-19T23:26:17.309Z,4.55
2022-08-19T23:30:26.955Z,4.40
2022-08-19T23:34:33.795Z,3.83
2022-08-19T23:38:42.584Z,4.00
2022-08-19T23:42:51.729Z,4.40
2022-08-19T23:46:58.454Z,4.28
2022-08-19T23:51:11.227Z,3.90
2022-08-19T23:55:20.130Z,4.40
2022-08-19T23:59:26.878Z,4.78
